sensor_id;sensor_type;location;lat;lon;timestamp;P1;durP1;ratioP1;P2;durP2;ratioP2
2618;SDS011;1319;52.346;13.096;2023-03-14T00:00:25;1.67;;;1.43;;
2618;SDS011;1319;52.346;13.096;2023-03-14T00:02:53;2.17;;;1.30;;
2618;SDS011;1319;52.346;13.096;2023-03-14T00:05:18;1.13;;;1.10;;
2618;SDS011;1319;52.346;13.096;2023-03-14T00:07:44;1.47;;;1.30;;
2618;SDS011;1319;52.346;13.096;2023-03-14T00:10:11;2.47;;;1.37;;
2618;SDS011;1319;52.346;13.096;2023-03-14T00:12:37;1.20;;;1.20;;
2618;SDS011;1319;52.346;13.096;2023-03-14T00:15:03;2.83;;;1.30;;
2618;SDS011;1319;52.346;13.096;2023-03-14T00:17:29;3.13;;;1.13;;
2618;SDS011;1319;52.346;13.096;2023-03-14T00:19:55;1.47;;;1.37;;
2618;SDS011;1319;52.346;13.096;2023-03-14T00:22:21;1.50;;;1.30;;
2618;SDS011;1319;52.346;13.096;2023-03-14T00:24:46;2.20;;;1.20;;
2618;SDS011;1319;52.346;13.096;2023-03-14T00:27:11;1.40;;;1.30;;
2618;SDS011;1319;52.346;13.096;2023-03-14T00:29:37;1.30;;;1.13;;
2618;SDS011;1319;52.346;13.096;2023-03-14T00:32:02;1.33;;;1.20;;
2618;SDS011;1319;52.346;13.096;2023-03-14T00:34:31;1.30;;;1.30;;
2618;SDS011;1319;52.346;13.096;2023-03-14T00:36:56;3.43;;;1.40;;
2618;SDS011;1319;52.346;13.096;2023-03-14T00:39:21;2.27;;;1.50;;
2618;SDS011;1319;52.346;13.096;2023-03-14T00:41:47;1.43;;;1.33;;
2618;SDS011;1319;52.346;13.096;2023-03-14T00:44:12;1.50;;;1.40;;
2618;SDS011;1319;52.346;13.096;2023-03-14T00:46:38;1.77;;;1.67;;
2618;SDS011;1319;52.346;13.096;2023-03-14T00:49:03;1.53;;;1.20;;
2618;SDS011;1319;52.346;13.096;2023-03-14T00:51:28;3.00;;;1.50;;
2618;SDS011;1319;52.346;13.096;2023-03-14T00:53:53;2.97;;;1.30;;
2618;SDS011;1319;52.346;13.096;2023-03-14T00:56:18;1.40;;;1.30;;
2618;SDS011;1319;52.346;13.096;2023-03-14T00:58:44;1.40;;;1.40;;
2618;SDS011;1319;52.346;13.096;2023-03-14T01:01:10;1.83;;;1.50;;
2618;SDS011;1319;52.346;13.096;2023-03-14T01:03:37;1.93;;;1.50;;
2618;SDS011;1319;52.346;13.096;2023-03-14T01:08:33;1.50;;;1.40;;
2618;SDS011;1319;52.346;13.096;2023-03-14T01:10:58;1.50;;;1.40;;
2618;SDS011;1319;52.346;13.096;2023-03-14T01:13:24;2.20;;;1.53;;
2618;SDS011;1319;52.346;13.096;2023-03-14T01:15:49;2.93;;;1.50;;
2618;SDS011;1319;52.346;13.096;2023-03-14T01:18:14;2.13;;;1.10;;
2618;SDS011;1319;52.346;13.096;2023-03-14T01:20:39;2.50;;;1.60;;
2618;SDS011;1319;52.346;13.096;2023-03-14T01:23:04;1.40;;;1.40;;
2618;SDS011;1319;52.346;13.096;2023-03-14T01:25:30;1.50;;;1.40;;
2618;SDS011;1319;52.346;13.096;2023-03-14T01:27:55;1.27;;;1.20;;
2618;SDS011;1319;52.346;13.096;2023-03-14T01:30:20;2.03;;;1.40;;
2618;SDS011;1319;52.346;13.096;2023-03-14T01:32:45;1.77;;;1.40;;
2618;SDS011;1319;52.346;13.096;2023-03-14T01:35:10;1.30;;;1.20;;
2618;SDS011;1319;52.346;13.096;2023-03-14T01:37:36;1.20;;;1.20;;
2618;SDS011;1319;52.346;13.096;2023-03-14T01:40:01;1.33;;;1.30;;
2618;SDS011;1319;52.346;13.096;2023-03-14T01:42:26;2.10;;;1.37;;
2618;SDS011;1319;52.346;13.096;2023-03-14T01:44:53;1.77;;;1.60;;
2618;SDS011;1319;52.346;13.096;2023-03-14T01:47:19;1.57;;;1.47;;
2618;SDS011;1319;52.346;13.096;2023-03-14T01:49:45;4.73;;;1.43;;
2618;SDS011;1319;52.346;13.096;2023-03-14T01:54:40;1.77;;;1.50;;
2618;SDS011;1319;52.346;13.096;2023-03-14T01:57:08;1.50;;;1.40;;
2618;SDS011;1319;52.346;13.096;2023-03-14T01:59:35;1.43;;;1.30;;
2618;SDS011;1319;52.346;13.096;2023-03-14T02:02:02;1.60;;;1.50;;
2618;SDS011;1319;52.346;13.096;2023-03-14T02:04:28;3.43;;;1.53;;
2618;SDS011;1319;52.346;13.096;2023-03-14T02:06:57;1.70;;;1.23;;
2618;SDS011;1319;52.346;13.096;2023-03-14T02:09:23;2.13;;;1.40;;
2618;SDS011;1319;52.346;13.096;2023-03-14T02:11:48;1.40;;;1.30;;
2618;SDS011;1319;52.346;13.096;2023-03-14T02:14:19;1.40;;;1.40;;
2618;SDS011;1319;52.346;13.096;2023-03-14T02:16:47;2.47;;;1.40;;
2618;SDS011;1319;52.346;13.096;2023-03-14T02:19:13;1.50;;;1.40;;
2618;SDS011;1319;52.346;13.096;2023-03-14T02:21:45;1.60;;;1.37;;
2618;SDS011;1319;52.346;13.096;2023-03-14T02:27:23;1.67;;;1.27;;
2618;SDS011;1319;52.346;13.096;2023-03-14T02:29:30;3.70;;;1.20;;
2618;SDS011;1319;52.346;13.096;2023-03-14T02:31:56;1.70;;;1.20;;
2618;SDS011;1319;52.346;13.096;2023-03-14T02:34:21;3.93;;;1.40;;
2618;SDS011;1319;52.346;13.096;2023-03-14T02:36:47;1.17;;;1.17;;
2618;SDS011;1319;52.346;13.096;2023-03-14T02:39:15;1.30;;;1.23;;
2618;SDS011;1319;52.346;13.096;2023-03-14T02:41:44;3.93;;;1.07;;
2618;SDS011;1319;52.346;13.096;2023-03-14T02:44:11;1.03;;;1.03;;
2618;SDS011;1319;52.346;13.096;2023-03-14T02:46:36;1.23;;;1.00;;
2618;SDS011;1319;52.346;13.096;2023-03-14T02:49:02;1.50;;;1.40;;
2618;SDS011;1319;52.346;13.096;2023-03-14T02:51:28;1.20;;;1.20;;
2618;SDS011;1319;52.346;13.096;2023-03-14T02:53:53;1.90;;;1.20;;
2618;SDS011;1319;52.346;13.096;2023-03-14T02:56:19;1.57;;;1.30;;
2618;SDS011;1319;52.346;13.096;2023-03-14T02:58:44;1.47;;;1.37;;
2618;SDS011;1319;52.346;13.096;2023-03-14T03:01:09;1.10;;;1.10;;
2618;SDS011;1319;52.346;13.096;2023-03-14T03:03:34;1.33;;;1.23;;
2618;SDS011;1319;52.346;13.096;2023-03-14T03:06:00;1.10;;;1.10;;
2618;SDS011;1319;52.346;13.096;2023-03-14T03:08:26;1.20;;;1.20;;
2618;SDS011;1319;52.346;13.096;2023-03-14T03:10:51;1.13;;;1.13;;
2618;SDS011;1319;52.346;13.096;2023-03-14T03:13:17;1.10;;;1.10;;
2618;SDS011;1319;52.346;13.096;2023-03-14T03:15:42;2.70;;;1.30;;
2618;SDS011;1319;52.346;13.096;2023-03-14T03:18:08;2.10;;;1.23;;
2618;SDS011;1319;52.346;13.096;2023-03-14T03:20:33;1.17;;;1.17;;
2618;SDS011;1319;52.346;13.096;2023-03-14T03:22:58;1.10;;;1.10;;
2618;SDS011;1319;52.346;13.096;2023-03-14T03:25:24;1.77;;;1.03;;
2618;SDS011;1319;52.346;13.096;2023-03-14T03:27:49;3.10;;;1.30;;
2618;SDS011;1319;52.346;13.096;2023-03-14T03:30:14;1.10;;;1.10;;
2618;SDS011;1319;52.346;13.096;2023-03-14T03:32:40;1.30;;;1.20;;
2618;SDS011;1319;52.346;13.096;2023-03-14T03:35:05;1.30;;;1.20;;
2618;SDS011;1319;52.346;13.096;2023-03-14T03:37:31;1.53;;;0.97;;
2618;SDS011;1319;52.346;13.096;2023-03-14T03:39:57;1.23;;;1.10;;
2618;SDS011;1319;52.346;13.096;2023-03-14T03:42:22;2.40;;;1.10;;
2618;SDS011;1319;52.346;13.096;2023-03-14T03:44:47;1.20;;;1.10;;
2618;SDS011;1319;52.346;13.096;2023-03-14T03:47:13;2.43;;;1.10;;
2618;SDS011;1319;52.346;13.096;2023-03-14T03:49:38;1.10;;;1.10;;
2618;SDS011;1319;52.346;13.096;2023-03-14T03:52:03;1.30;;;1.30;;
2618;SDS011;1319;52.346;13.096;2023-03-14T03:54:28;2.03;;;1.30;;
2618;SDS011;1319;52.346;13.096;2023-03-14T03:56:54;1.63;;;1.30;;
2618;SDS011;1319;52.346;13.096;2023-03-14T03:59:19;1.33;;;1.27;;
2618;SDS011;1319;52.346;13.096;2023-03-14T04:01:44;1.20;;;1.20;;
2618;SDS011;1319;52.346;13.096;2023-03-14T04:04:10;3.17;;;1.40;;
2618;SDS011;1319;52.346;13.096;2023-03-14T04:06:35;1.30;;;1.30;;
2618;SDS011;1319;52.346;13.096;2023-03-14T04:09:01;1.37;;;1.10;;
2618;SDS011;1319;52.346;13.096;2023-03-14T04:11:26;5.80;;;1.20;;
2618;SDS011;1319;52.346;13.096;2023-03-14T04:13:52;1.20;;;1.10;;
2618;SDS011;1319;52.346;13.096;2023-03-14T04:16:18;1.43;;;1.33;;
2618;SDS011;1319;52.346;13.096;2023-03-14T04:18:44;2.47;;;1.10;;
2618;SDS011;1319;52.346;13.096;2023-03-14T04:21:09;3.80;;;1.37;;
2618;SDS011;1319;52.346;13.096;2023-03-14T04:23:34;3.40;;;1.20;;
2618;SDS011;1319;52.346;13.096;2023-03-14T04:25:59;1.10;;;1.07;;
2618;SDS011;1319;52.346;13.096;2023-03-14T04:28:25;1.47;;;1.10;;
2618;SDS011;1319;52.346;13.096;2023-03-14T04:30:50;0.93;;;0.93;;
2618;SDS011;1319;52.346;13.096;2023-03-14T04:33:15;1.30;;;1.30;;
2618;SDS011;1319;52.346;13.096;2023-03-14T04:35:42;1.40;;;1.00;;
2618;SDS011;1319;52.346;13.096;2023-03-14T04:38:07;1.97;;;1.13;;
2618;SDS011;1319;52.346;13.096;2023-03-14T04:40:32;1.30;;;1.20;;
2618;SDS011;1319;52.346;13.096;2023-03-14T04:42:58;1.43;;;1.10;;
2618;SDS011;1319;52.346;13.096;2023-03-14T04:45:23;1.17;;;1.10;;
2618;SDS011;1319;52.346;13.096;2023-03-14T04:47:48;1.20;;;1.20;;
2618;SDS011;1319;52.346;13.096;2023-03-14T04:50:13;1.20;;;1.10;;
2618;SDS011;1319;52.346;13.096;2023-03-14T04:52:38;1.20;;;1.10;;
2618;SDS011;1319;52.346;13.096;2023-03-14T04:55:04;1.27;;;1.27;;
2618;SDS011;1319;52.346;13.096;2023-03-14T04:57:29;1.30;;;1.30;;
2618;SDS011;1319;52.346;13.096;2023-03-14T04:59:54;1.53;;;1.20;;
2618;SDS011;1319;52.346;13.096;2023-03-14T05:02:19;1.20;;;1.20;;
2618;SDS011;1319;52.346;13.096;2023-03-14T05:04:45;1.40;;;1.30;;
2618;SDS011;1319;52.346;13.096;2023-03-14T05:07:10;1.47;;;1.20;;
2618;SDS011;1319;52.346;13.096;2023-03-14T05:09:35;1.83;;;1.00;;
2618;SDS011;1319;52.346;13.096;2023-03-14T05:12:00;1.20;;;1.20;;
2618;SDS011;1319;52.346;13.096;2023-03-14T05:14:25;1.30;;;1.20;;
2618;SDS011;1319;52.346;13.096;2023-03-14T05:16:51;1.60;;;1.30;;
2618;SDS011;1319;52.346;13.096;2023-03-14T05:19:16;1.10;;;1.10;;
2618;SDS011;1319;52.346;13.096;2023-03-14T05:21:41;2.13;;;1.27;;
2618;SDS011;1319;52.346;13.096;2023-03-14T05:24:06;1.40;;;1.30;;
2618;SDS011;1319;52.346;13.096;2023-03-14T05:26:32;1.30;;;1.17;;
2618;SDS011;1319;52.346;13.096;2023-03-14T05:28:57;1.50;;;1.40;;
2618;SDS011;1319;52.346;13.096;2023-03-14T05:31:22;1.97;;;1.20;;
2618;SDS011;1319;52.346;13.096;2023-03-14T05:33:48;3.00;;;1.37;;
2618;SDS011;1319;52.346;13.096;2023-03-14T05:36:13;1.30;;;1.30;;
2618;SDS011;1319;52.346;13.096;2023-03-14T05:38:38;1.43;;;1.10;;
2618;SDS011;1319;52.346;13.096;2023-03-14T05:41:03;2.30;;;1.33;;
2618;SDS011;1319;52.346;13.096;2023-03-14T05:43:29;2.33;;;1.30;;
2618;SDS011;1319;52.346;13.096;2023-03-14T05:45:54;0.90;;;0.90;;
2618;SDS011;1319;52.346;13.096;2023-03-14T05:48:19;2.83;;;1.00;;
2618;SDS011;1319;52.346;13.096;2023-03-14T05:50:46;1.53;;;1.40;;
2618;SDS011;1319;52.346;13.096;2023-03-14T05:53:11;2.40;;;1.20;;
2618;SDS011;1319;52.346;13.096;2023-03-14T05:55:36;2.27;;;1.30;;
2618;SDS011;1319;52.346;13.096;2023-03-14T05:58:02;1.53;;;1.40;;
2618;SDS011;1319;52.346;13.096;2023-03-14T06:00:27;3.07;;;1.33;;
2618;SDS011;1319;52.346;13.096;2023-03-14T06:02:52;3.93;;;1.30;;
2618;SDS011;1319;52.346;13.096;2023-03-14T06:05:17;4.73;;;1.40;;
2618;SDS011;1319;52.346;13.096;2023-03-14T06:07:42;3.13;;;1.40;;
2618;SDS011;1319;52.346;13.096;2023-03-14T06:10:08;1.67;;;1.50;;
2618;SDS011;1319;52.346;13.096;2023-03-14T06:12:33;3.83;;;1.40;;
2618;SDS011;1319;52.346;13.096;2023-03-14T06:14:59;1.47;;;1.20;;
2618;SDS011;1319;52.346;13.096;2023-03-14T06:17:24;3.37;;;1.30;;
2618;SDS011;1319;52.346;13.096;2023-03-14T06:19:49;2.27;;;1.20;;
2618;SDS011;1319;52.346;13.096;2023-03-14T06:22:14;1.47;;;1.37;;
2618;SDS011;1319;52.346;13.096;2023-03-14T06:24:39;2.90;;;1.30;;
2618;SDS011;1319;52.346;13.096;2023-03-14T06:27:05;1.33;;;1.10;;
2618;SDS011;1319;52.346;13.096;2023-03-14T06:29:30;2.77;;;1.30;;
2618;SDS011;1319;52.346;13.096;2023-03-14T06:31:55;4.23;;;1.20;;
2618;SDS011;1319;52.346;13.096;2023-03-14T06:34:20;1.43;;;1.33;;
2618;SDS011;1319;52.346;13.096;2023-03-14T06:36:46;1.50;;;1.40;;
2618;SDS011;1319;52.346;13.096;2023-03-14T06:39:11;5.43;;;1.60;;
2618;SDS011;1319;52.346;13.096;2023-03-14T06:41:36;2.43;;;1.40;;
2618;SDS011;1319;52.346;13.096;2023-03-14T06:44:01;2.07;;;1.50;;
2618;SDS011;1319;52.346;13.096;2023-03-14T06:46:27;2.30;;;1.20;;
2618;SDS011;1319;52.346;13.096;2023-03-14T06:48:52;3.70;;;1.33;;
2618;SDS011;1319;52.346;13.096;2023-03-14T06:51:17;1.40;;;1.30;;
2618;SDS011;1319;52.346;13.096;2023-03-14T06:53:42;1.90;;;1.37;;
2618;SDS011;1319;52.346;13.096;2023-03-14T06:56:07;4.20;;;1.80;;
2618;SDS011;1319;52.346;13.096;2023-03-14T06:58:33;2.37;;;1.40;;
2618;SDS011;1319;52.346;13.096;2023-03-14T07:00:58;1.93;;;1.40;;
2618;SDS011;1319;52.346;13.096;2023-03-14T07:03:23;3.00;;;1.40;;
2618;SDS011;1319;52.346;13.096;2023-03-14T07:05:49;4.07;;;1.50;;
2618;SDS011;1319;52.346;13.096;2023-03-14T07:08:14;6.83;;;1.67;;
2618;SDS011;1319;52.346;13.096;2023-03-14T07:10:39;5.30;;;1.40;;
2618;SDS011;1319;52.346;13.096;2023-03-14T07:13:05;3.27;;;1.20;;
2618;SDS011;1319;52.346;13.096;2023-03-14T07:15:30;1.40;;;1.30;;
2618;SDS011;1319;52.346;13.096;2023-03-14T07:17:55;3.57;;;1.47;;
2618;SDS011;1319;52.346;13.096;2023-03-14T07:20:20;3.43;;;1.40;;
2618;SDS011;1319;52.346;13.096;2023-03-14T07:22:49;2.27;;;1.40;;
2618;SDS011;1319;52.346;13.096;2023-03-14T07:25:14;3.70;;;1.60;;
2618;SDS011;1319;52.346;13.096;2023-03-14T07:27:40;2.37;;;1.47;;
2618;SDS011;1319;52.346;13.096;2023-03-14T07:30:05;3.47;;;1.63;;
2618;SDS011;1319;52.346;13.096;2023-03-14T07:32:30;3.63;;;1.50;;
2618;SDS011;1319;52.346;13.096;2023-03-14T07:34:56;2.00;;;1.40;;
2618;SDS011;1319;52.346;13.096;2023-03-14T07:37:21;2.67;;;1.50;;
2618;SDS011;1319;52.346;13.096;2023-03-14T07:39:46;4.63;;;1.60;;
2618;SDS011;1319;52.346;13.096;2023-03-14T07:42:11;3.60;;;1.47;;
2618;SDS011;1319;52.346;13.096;2023-03-14T07:44:37;5.40;;;1.50;;
2618;SDS011;1319;52.346;13.096;2023-03-14T07:47:02;2.37;;;1.37;;
2618;SDS011;1319;52.346;13.096;2023-03-14T07:49:27;3.03;;;2.00;;
2618;SDS011;1319;52.346;13.096;2023-03-14T07:51:52;5.10;;;1.47;;
2618;SDS011;1319;52.346;13.096;2023-03-14T07:54:18;3.40;;;1.30;;
2618;SDS011;1319;52.346;13.096;2023-03-14T07:56:43;1.10;;;1.10;;
2618;SDS011;1319;52.346;13.096;2023-03-14T07:59:08;3.70;;;1.33;;
2618;SDS011;1319;52.346;13.096;2023-03-14T08:01:33;4.03;;;1.40;;
2618;SDS011;1319;52.346;13.096;2023-03-14T08:03:59;10.23;;;1.40;;
2618;SDS011;1319;52.346;13.096;2023-03-14T08:06:24;4.87;;;1.30;;
2618;SDS011;1319;52.346;13.096;2023-03-14T08:08:49;2.63;;;1.40;;
2618;SDS011;1319;52.346;13.096;2023-03-14T08:11:14;4.33;;;1.47;;
2618;SDS011;1319;52.346;13.096;2023-03-14T08:13:40;4.27;;;1.57;;
2618;SDS011;1319;52.346;13.096;2023-03-14T08:16:05;2.87;;;1.20;;
2618;SDS011;1319;52.346;13.096;2023-03-14T08:18:30;2.83;;;1.23;;
2618;SDS011;1319;52.346;13.096;2023-03-14T08:20:56;5.70;;;1.40;;
2618;SDS011;1319;52.346;13.096;2023-03-14T08:23:21;4.47;;;1.37;;
2618;SDS011;1319;52.346;13.096;2023-03-14T08:25:48;2.37;;;1.20;;
2618;SDS011;1319;52.346;13.096;2023-03-14T08:28:13;3.83;;;1.50;;
2618;SDS011;1319;52.346;13.096;2023-03-14T08:30:38;2.20;;;1.20;;
2618;SDS011;1319;52.346;13.096;2023-03-14T08:33:04;3.03;;;1.37;;
2618;SDS011;1319;52.346;13.096;2023-03-14T08:35:29;3.77;;;1.20;;
2618;SDS011;1319;52.346;13.096;2023-03-14T08:37:54;1.83;;;1.30;;
2618;SDS011;1319;52.346;13.096;2023-03-14T08:40:20;2.40;;;1.10;;
2618;SDS011;1319;52.346;13.096;2023-03-14T08:42:46;6.93;;;1.30;;
2618;SDS011;1319;52.346;13.096;2023-03-14T08:45:12;2.07;;;1.30;;
2618;SDS011;1319;52.346;13.096;2023-03-14T08:47:38;1.87;;;1.20;;
2618;SDS011;1319;52.346;13.096;2023-03-14T08:50:03;6.33;;;1.50;;
2618;SDS011;1319;52.346;13.096;2023-03-14T08:52:29;3.27;;;1.40;;
2618;SDS011;1319;52.346;13.096;2023-03-14T08:54:55;3.53;;;1.27;;
2618;SDS011;1319;52.346;13.096;2023-03-14T08:57:20;5.13;;;1.70;;
2618;SDS011;1319;52.346;13.096;2023-03-14T08:59:46;3.10;;;1.47;;
2618;SDS011;1319;52.346;13.096;2023-03-14T09:02:12;5.17;;;1.47;;
2618;SDS011;1319;52.346;13.096;2023-03-14T09:04:37;4.50;;;1.60;;
2618;SDS011;1319;52.346;13.096;2023-03-14T09:07:02;2.43;;;1.70;;
2618;SDS011;1319;52.346;13.096;2023-03-14T09:09:28;3.50;;;1.70;;
2618;SDS011;1319;52.346;13.096;2023-03-14T09:11:53;1.70;;;1.30;;
2618;SDS011;1319;52.346;13.096;2023-03-14T09:14:18;2.03;;;1.20;;
2618;SDS011;1319;52.346;13.096;2023-03-14T09:16:43;3.40;;;1.20;;
2618;SDS011;1319;52.346;13.096;2023-03-14T09:19:09;2.50;;;1.23;;
2618;SDS011;1319;52.346;13.096;2023-03-14T09:21:34;3.25;;;1.30;;
2618;SDS011;1319;52.346;13.096;2023-03-14T09:23:59;2.55;;;1.27;;
2618;SDS011;1319;52.346;13.096;2023-03-14T09:26:24;4.30;;;1.40;;
2618;SDS011;1319;52.346;13.096;2023-03-14T09:28:49;3.03;;;1.20;;
2618;SDS011;1319;52.346;13.096;2023-03-14T09:31:15;1.73;;;1.00;;
2618;SDS011;1319;52.346;13.096;2023-03-14T09:33:40;5.93;;;1.20;;
2618;SDS011;1319;52.346;13.096;2023-03-14T09:36:06;4.80;;;1.13;;
2618;SDS011;1319;52.346;13.096;2023-03-14T09:38:32;6.33;;;1.60;;
2618;SDS011;1319;52.346;13.096;2023-03-14T09:40:58;4.00;;;1.30;;
2618;SDS011;1319;52.346;13.096;2023-03-14T09:43:24;5.07;;;1.10;;
2618;SDS011;1319;52.346;13.096;2023-03-14T09:45:51;2.83;;;1.10;;
2618;SDS011;1319;52.346;13.096;2023-03-14T09:48:19;2.87;;;1.37;;
2618;SDS011;1319;52.346;13.096;2023-03-14T09:50:46;2.50;;;1.20;;
2618;SDS011;1319;52.346;13.096;2023-03-14T09:53:14;1.63;;;1.20;;
2618;SDS011;1319;52.346;13.096;2023-03-14T09:55:41;3.83;;;1.23;;
2618;SDS011;1319;52.346;13.096;2023-03-14T09:58:11;4.50;;;1.10;;
2618;SDS011;1319;52.346;13.096;2023-03-14T10:00:37;2.13;;;1.07;;
2618;SDS011;1319;52.346;13.096;2023-03-14T10:05:33;1.60;;;1.13;;
2618;SDS011;1319;52.346;13.096;2023-03-14T10:07:58;2.03;;;1.07;;
2618;SDS011;1319;52.346;13.096;2023-03-14T10:10:25;1.90;;;0.97;;
2618;SDS011;1319;52.346;13.096;2023-03-14T10:12:55;1.03;;;1.00;;
2618;SDS011;1319;52.346;13.096;2023-03-14T10:15:25;4.50;;;1.20;;
2618;SDS011;1319;52.346;13.096;2023-03-14T10:17:51;2.47;;;1.20;;
2618;SDS011;1319;52.346;13.096;2023-03-14T10:20:27;2.47;;;0.90;;
2618;SDS011;1319;52.346;13.096;2023-03-14T10:22:57;3.30;;;0.90;;
2618;SDS011;1319;52.346;13.096;2023-03-14T10:25:26;4.03;;;1.00;;
2618;SDS011;1319;52.346;13.096;2023-03-14T10:27:52;1.50;;;1.00;;
2618;SDS011;1319;52.346;13.096;2023-03-14T10:30:33;3.17;;;1.00;;
2618;SDS011;1319;52.346;13.096;2023-03-14T10:33:07;0.83;;;0.83;;
2618;SDS011;1319;52.346;13.096;2023-03-14T10:35:32;0.90;;;0.90;;
2618;SDS011;1319;52.346;13.096;2023-03-14T10:37:59;2.30;;;1.10;;
2618;SDS011;1319;52.346;13.096;2023-03-14T10:40:27;1.00;;;0.90;;
2618;SDS011;1319;52.346;13.096;2023-03-14T10:42:53;1.17;;;1.07;;
2618;SDS011;1319;52.346;13.096;2023-03-14T10:45:27;2.27;;;1.00;;
2618;SDS011;1319;52.346;13.096;2023-03-14T10:47:53;2.57;;;1.20;;
2618;SDS011;1319;52.346;13.096;2023-03-14T10:50:23;2.20;;;0.90;;
2618;SDS011;1319;52.346;13.096;2023-03-14T10:52:48;2.10;;;0.97;;
2618;SDS011;1319;52.346;13.096;2023-03-14T10:55:15;2.77;;;1.00;;
2618;SDS011;1319;52.346;13.096;2023-03-14T10:57:41;2.27;;;0.90;;
2618;SDS011;1319;52.346;13.096;2023-03-14T11:02:47;1.20;;;1.00;;
2618;SDS011;1319;52.346;13.096;2023-03-14T11:05:24;1.20;;;1.10;;
2618;SDS011;1319;52.346;13.096;2023-03-14T11:07:50;1.57;;;1.00;;
2618;SDS011;1319;52.346;13.096;2023-03-14T11:12:58;0.90;;;0.90;;
2618;SDS011;1319;52.346;13.096;2023-03-14T11:15:34;1.00;;;0.80;;
2618;SDS011;1319;52.346;13.096;2023-03-14T11:20:47;2.27;;;1.00;;
2618;SDS011;1319;52.346;13.096;2023-03-14T11:23:20;1.13;;;0.90;;
2618;SDS011;1319;52.346;13.096;2023-03-14T11:25:49;1.57;;;1.00;;
2618;SDS011;1319;52.346;13.096;2023-03-14T11:28:24;1.43;;;1.00;;
2618;SDS011;1319;52.346;13.096;2023-03-14T11:30:53;2.07;;;1.00;;
2618;SDS011;1319;52.346;13.096;2023-03-14T11:38:14;3.57;;;0.80;;
2618;SDS011;1319;52.346;13.096;2023-03-14T11:40:40;2.50;;;0.90;;
2618;SDS011;1319;52.346;13.096;2023-03-14T11:45:35;1.30;;;0.97;;
2618;SDS011;1319;52.346;13.096;2023-03-14T11:50:31;3.20;;;0.87;;
2618;SDS011;1319;52.346;13.096;2023-03-14T11:55:30;2.10;;;1.00;;
2618;SDS011;1319;52.346;13.096;2023-03-14T11:57:58;1.30;;;1.03;;
2618;SDS011;1319;52.346;13.096;2023-03-14T12:00:25;2.03;;;0.87;;
2618;SDS011;1319;52.346;13.096;2023-03-14T12:02:55;1.07;;;0.77;;
2618;SDS011;1319;52.346;13.096;2023-03-14T12:05:26;2.33;;;0.90;;
2618;SDS011;1319;52.346;13.096;2023-03-14T12:10:24;1.33;;;0.87;;
2618;SDS011;1319;52.346;13.096;2023-03-14T12:12:49;0.87;;;0.70;;
2618;SDS011;1319;52.346;13.096;2023-03-14T12:15:19;1.63;;;1.10;;
2618;SDS011;1319;52.346;13.096;2023-03-14T12:17:45;1.50;;;1.00;;
2618;SDS011;1319;52.346;13.096;2023-03-14T12:22:42;0.93;;;0.70;;
2618;SDS011;1319;52.346;13.096;2023-03-14T12:28:03;2.83;;;0.93;;
2618;SDS011;1319;52.346;13.096;2023-03-14T12:30:30;0.80;;;0.70;;
2618;SDS011;1319;52.346;13.096;2023-03-14T12:35:41;0.60;;;0.60;;
2618;SDS011;1319;52.346;13.096;2023-03-14T12:43:27;2.03;;;0.90;;
2618;SDS011;1319;52.346;13.096;2023-03-14T12:48:30;0.70;;;0.70;;
2618;SDS011;1319;52.346;13.096;2023-03-14T12:51:01;0.60;;;0.57;;
2618;SDS011;1319;52.346;13.096;2023-03-14T12:56:17;1.33;;;0.53;;
2618;SDS011;1319;52.346;13.096;2023-03-14T13:01:30;1.90;;;0.80;;
2618;SDS011;1319;52.346;13.096;2023-03-14T13:03:58;1.03;;;0.70;;
2618;SDS011;1319;52.346;13.096;2023-03-14T13:12:00;0.53;;;0.53;;
2618;SDS011;1319;52.346;13.096;2023-03-14T13:14:27;0.57;;;0.57;;
2618;SDS011;1319;52.346;13.096;2023-03-14T13:16:53;1.40;;;0.63;;
2618;SDS011;1319;52.346;13.096;2023-03-14T13:19:19;1.93;;;0.80;;
2618;SDS011;1319;52.346;13.096;2023-03-14T13:21:45;1.43;;;0.60;;
2618;SDS011;1319;52.346;13.096;2023-03-14T13:24:24;0.60;;;0.60;;
2618;SDS011;1319;52.346;13.096;2023-03-14T13:26:49;1.27;;;0.73;;
2618;SDS011;1319;52.346;13.096;2023-03-14T13:29:19;0.77;;;0.77;;
2618;SDS011;1319;52.346;13.096;2023-03-14T13:31:45;0.50;;;0.50;;
2618;SDS011;1319;52.346;13.096;2023-03-14T13:34:11;1.80;;;0.90;;
2618;SDS011;1319;52.346;13.096;2023-03-14T13:36:37;2.33;;;0.80;;
2618;SDS011;1319;52.346;13.096;2023-03-14T13:39:02;1.50;;;0.80;;
2618;SDS011;1319;52.346;13.096;2023-03-14T13:41:29;0.60;;;0.60;;
2618;SDS011;1319;52.346;13.096;2023-03-14T13:44:02;1.30;;;0.90;;
2618;SDS011;1319;52.346;13.096;2023-03-14T13:46:28;1.35;;;0.65;;
2618;SDS011;1319;52.346;13.096;2023-03-14T13:48:55;0.60;;;0.60;;
2618;SDS011;1319;52.346;13.096;2023-03-14T13:51:21;0.75;;;0.75;;
2618;SDS011;1319;52.346;13.096;2023-03-14T13:53:47;0.60;;;0.60;;
2618;SDS011;1319;52.346;13.096;2023-03-14T13:56:14;0.50;;;0.50;;
2618;SDS011;1319;52.346;13.096;2023-03-14T13:58:39;1.05;;;0.88;;
2618;SDS011;1319;52.346;13.096;2023-03-14T14:03:40;0.70;;;0.70;;
2618;SDS011;1319;52.346;13.096;2023-03-14T14:06:08;0.82;;;0.80;;
2618;SDS011;1319;52.346;13.096;2023-03-14T14:08:35;0.50;;;0.50;;
2618;SDS011;1319;52.346;13.096;2023-03-14T14:11:01;0.70;;;0.70;;
2618;SDS011;1319;52.346;13.096;2023-03-14T14:13:27;0.75;;;0.75;;
2618;SDS011;1319;52.346;13.096;2023-03-14T14:15:55;0.85;;;0.80;;
2618;SDS011;1319;52.346;13.096;2023-03-14T14:18:22;0.80;;;0.80;;
2618;SDS011;1319;52.346;13.096;2023-03-14T14:20:48;0.85;;;0.80;;
2618;SDS011;1319;52.346;13.096;2023-03-14T14:23:19;0.80;;;0.80;;
2618;SDS011;1319;52.346;13.096;2023-03-14T14:25:49;0.90;;;0.90;;
2618;SDS011;1319;52.346;13.096;2023-03-14T14:30:43;0.43;;;0.43;;
2618;SDS011;1319;52.346;13.096;2023-03-14T14:33:16;1.38;;;0.68;;
2618;SDS011;1319;52.346;13.096;2023-03-14T14:35:42;0.70;;;0.70;;
2618;SDS011;1319;52.346;13.096;2023-03-14T14:38:10;0.50;;;0.50;;
2618;SDS011;1319;52.346;13.096;2023-03-14T14:40:43;0.43;;;0.40;;
2618;SDS011;1319;52.346;13.096;2023-03-14T14:43:10;0.73;;;0.70;;
2618;SDS011;1319;52.346;13.096;2023-03-14T14:45:36;1.45;;;0.50;;
2618;SDS011;1319;52.346;13.096;2023-03-14T14:48:03;0.77;;;0.60;;
2618;SDS011;1319;52.346;13.096;2023-03-14T14:52:58;1.03;;;0.60;;
2618;SDS011;1319;52.346;13.096;2023-03-14T14:55:28;0.73;;;0.73;;
2618;SDS011;1319;52.346;13.096;2023-03-14T14:57:54;0.60;;;0.60;;
2618;SDS011;1319;52.346;13.096;2023-03-14T15:00:22;1.00;;;0.70;;
2618;SDS011;1319;52.346;13.096;2023-03-14T15:02:50;0.70;;;0.70;;
2618;SDS011;1319;52.346;13.096;2023-03-14T15:05:24;2.00;;;0.60;;
2618;SDS011;1319;52.346;13.096;2023-03-14T15:07:50;0.77;;;0.50;;
2618;SDS011;1319;52.346;13.096;2023-03-14T15:10:16;5.83;;;0.80;;
2618;SDS011;1319;52.346;13.096;2023-03-14T15:12:41;1.53;;;0.70;;
2618;SDS011;1319;52.346;13.096;2023-03-14T15:15:07;1.47;;;0.50;;
2618;SDS011;1319;52.346;13.096;2023-03-14T15:17:32;1.27;;;0.67;;
2618;SDS011;1319;52.346;13.096;2023-03-14T15:19:57;2.27;;;0.60;;
2618;SDS011;1319;52.346;13.096;2023-03-14T15:22:23;1.47;;;0.77;;
2618;SDS011;1319;52.346;13.096;2023-03-14T15:24:49;1.80;;;0.93;;
2618;SDS011;1319;52.346;13.096;2023-03-14T15:27:14;0.70;;;0.70;;
2618;SDS011;1319;52.346;13.096;2023-03-14T15:29:40;2.73;;;0.60;;
2618;SDS011;1319;52.346;13.096;2023-03-14T15:32:05;1.37;;;0.60;;
2618;SDS011;1319;52.346;13.096;2023-03-14T15:34:31;1.63;;;0.73;;
2618;SDS011;1319;52.346;13.096;2023-03-14T15:36:57;0.70;;;0.70;;
2618;SDS011;1319;52.346;13.096;2023-03-14T15:39:22;1.40;;;0.70;;
2618;SDS011;1319;52.346;13.096;2023-03-14T15:41:47;7.30;;;1.10;;
2618;SDS011;1319;52.346;13.096;2023-03-14T15:44:12;5.13;;;1.00;;
2618;SDS011;1319;52.346;13.096;2023-03-14T15:46:38;2.20;;;0.70;;
2618;SDS011;1319;52.346;13.096;2023-03-14T15:49:03;1.00;;;1.00;;
2618;SDS011;1319;52.346;13.096;2023-03-14T15:51:28;0.87;;;0.87;;
2618;SDS011;1319;52.346;13.096;2023-03-14T15:53:53;0.77;;;0.77;;
2618;SDS011;1319;52.346;13.096;2023-03-14T15:56:19;1.00;;;0.90;;
2618;SDS011;1319;52.346;13.096;2023-03-14T15:58:45;3.20;;;1.00;;
2618;SDS011;1319;52.346;13.096;2023-03-14T16:01:13;0.87;;;0.70;;